Time,TemperatureF,DewpointF,PressureIn,WindDirection,WindDirectionDegrees,WindSpeedMPH,WindSpeedGustMPH,Humidity,HourlyPrecipIn,Conditions,Clouds,dailyrainin,SoftwareType,DateUTC
2013-06-07 00:00:00,68.3,65.9,29.82,SE,135,0.0,5.0,92,0.00,,,0.01,Wunderground v.1.12,2013-06-07 04:00:00,
2013-06-07 00:10:00,68.3,65.9,29.82,SE,135,0.0,5.0,92,0.00,,,0.01,Wunderground v.1.12,2013-06-07 04:10:00,
2013-06-07 00:20:00,68.3,65.9,29.82,SE,135,0.0,5.0,92,0.00,,,0.01,Wunderground v.1.12,2013-06-07 04:20:00,
2013-06-07 00:30:00,68.3,65.9,29.82,SE,135,0.0,2.0,92,0.01,,,0.01,Wunderground v.1.12,2013-06-07 04:30:00,
2013-06-07 00:40:00,68.3,66.2,29.81,South,180,0.0,2.0,93,0.01,,,0.01,Wunderground v.1.12,2013-06-07 04:40:00,
2013-06-07 00:50:00,68.3,66.2,29.81,South,180,0.0,2.0,93,0.01,,,0.01,Wunderground v.1.12,2013-06-07 04:50:00,
2013-06-07 01:00:00,68.3,66.2,29.80,ENE,68,0.0,2.0,93,0.01,,,0.01,Wunderground v.1.12,2013-06-07 05:00:00,
2013-06-07 01:10:00,68.3,66.5,29.79,NE,45,0.0,2.0,94,0.01,,,0.01,Wunderground v.1.12,2013-06-07 05:10:00,
2013-06-07 01:20:00,68.3,66.5,29.79,NE,45,0.0,2.0,94,0.01,,,0.01,Wunderground v.1.12,2013-06-07 05:20:00,
2013-06-07 01:30:00,-999.9,-99.9,29.78,N/A,-737280,0.0,0.0,-32768,0.00,,,0.01,Wunderground v.1.12,2013-06-07 05:30:00,
2013-06-07 01:40:00,-999.9,-99.9,29.78,N/A,-737280,0.0,0.0,-32768,0.00,,,0.01,Wunderground v.1.12,2013-06-07 05:40:00,
2013-06-07 01:50:00,-999.9,-99.9,29.78,N/A,-737280,0.0,0.0,-32768,0.00,,,0.01,Wunderground v.1.12,2013-06-07 05:50:00,
2013-06-07 02:00:00,-999.9,-99.9,29.78,N/A,-737280,0.0,0.0,-32768,0.00,,,0.01,Wunderground v.1.12,2013-06-07 06:00:00,
2013-06-07 02:10:00,-999.9,-99.9,29.77,N/A,-737280,0.0,0.0,-32768,0.00,,,0.01,Wunderground v.1.12,2013-06-07 06:10:00,
2013-06-07 02:20:00,-999.9,-99.9,29.77,N/A,-737280,0.0,0.0,-32768,0.00,,,0.01,Wunderground v.1.12,2013-06-07 06:20:00,
2013-06-07 02:30:00,-999.9,-99.9,29.76,N/A,-737280,0.0,0.0,-32768,0.00,,,0.01,Wunderground v.1.12,2013-06-07 06:30:00,
2013-06-07 02:40:00,-999.9,-99.9,29.76,N/A,-737280,0.0,0.0,-32768,0.00,,,0.01,Wunderground v.1.12,2013-06-07 06:40:00,
2013-06-07 02:50:00,-999.9,-99.9,29.76,N/A,-737280,0.0,0.0,-32768,0.00,,,0.01,Wunderground v.1.12,2013-06-07 06:50:00,
2013-06-07 03:00:00,-999.9,-99.9,29.75,N/A,-737280,0.0,0.0,-32768,0.00,,,0.01,Wunderground v.1.12,2013-06-07 07:00:00,
2013-06-07 03:10:00,-999.9,-99.9,29.74,N/A,-737280,0.0,0.0,-32768,0.00,,,0.01,Wunderground v.1.12,2013-06-07 07:10:00,
2013-06-07 03:20:00,-999.9,-99.9,29.74,N/A,-737280,0.0,0.0,-32768,0.00,,,0.01,Wunderground v.1.12,2013-06-07 07:20:00,
2013-06-07 03:30:00,-999.9,-99.9,29.74,N/A,-737280,0.0,0.0,-32768,0.00,,,0.01,Wunderground v.1.12,2013-06-07 07:30:00,
2013-06-07 03:40:00,-999.9,-99.9,29.73,N/A,-737280,0.0,0.0,-32768,0.00,,,0.01,Wunderground v.1.12,2013-06-07 07:40:00,
2013-06-07 03:50:00,-999.9,-99.9,29.73,N/A,-737280,0.0,0.0,-32768,0.00,,,0.01,Wunderground v.1.12,2013-06-07 07:50:00,
2013-06-07 04:00:00,-999.9,-99.9,29.73,N/A,-737280,0.0,0.0,-32768,0.00,,,0.01,Wunderground v.1.12,2013-06-07 08:00:00,
2013-06-07 04:10:00,-999.9,-99.9,29.73,N/A,-737280,0.0,0.0,-32768,0.00,,,0.01,Wunderground v.1.12,2013-06-07 08:10:00,
2013-06-07 04:20:00,-999.9,-99.9,29.73,N/A,-737280,0.0,0.0,-32768,0.00,,,0.01,Wunderground v.1.12,2013-06-07 08:20:00,
2013-06-07 04:30:00,-999.9,-99.9,29.73,N/A,-737280,0.0,0.0,-32768,0.00,,,0.01,Wunderground v.1.12,2013-06-07 08:30:00,
2013-06-07 04:40:00,-999.9,-99.9,29.73,N/A,-737280,0.0,0.0,-32768,0.00,,,0.01,Wunderground v.1.12,2013-06-07 08:40:00,
2013-06-07 04:50:00,-999.9,-99.9,29.73,N/A,-737280,0.0,0.0,-32768,0.00,,,0.01,Wunderground v.1.12,2013-06-07 08:50:00,
2013-06-07 05:00:00,-999.9,-99.9,29.73,N/A,-737280,0.0,0.0,-32768,0.00,,,0.01,Wunderground v.1.12,2013-06-07 09:00:00,
2013-06-07 05:10:00,-999.9,-99.9,29.73,N/A,-737280,0.0,0.0,-32768,0.00,,,0.01,Wunderground v.1.12,2013-06-07 09:10:00,
2013-06-07 05:20:00,-999.9,-99.9,29.73,N/A,-737280,0.0,0.0,-32768,0.00,,,0.01,Wunderground v.1.12,2013-06-07 09:20:00,
2013-06-07 05:30:00,-999.9,-99.9,29.73,N/A,-737280,0.0,0.0,-32768,0.00,,,0.01,Wunderground v.1.12,2013-06-07 09:30:00,
2013-06-07 05:40:00,-999.9,-99.9,29.74,N/A,-737280,0.0,0.0,-32768,0.00,,,0.01,Wunderground v.1.12,2013-06-07 09:40:00,
2013-06-07 05:50:00,-999.9,-99.9,29.74,N/A,-737280,0.0,0.0,-32768,0.00,,,0.01,Wunderground v.1.12,2013-06-07 09:50:00,
2013-06-07 06:00:00,-999.9,-99.9,29.74,N/A,-737280,0.0,0.0,-32768,0.00,,,0.01,Wunderground v.1.12,2013-06-07 10:00:00,
2013-06-07 06:10:00,-999.9,-99.9,29.74,N/A,-737280,0.0,0.0,-32768,0.00,,,0.01,Wunderground v.1.12,2013-06-07 10:10:00,
2013-06-07 06:20:00,-999.9,-99.9,29.74,N/A,-737280,0.0,0.0,-32768,0.00,,,0.01,Wunderground v.1.12,2013-06-07 10:20:00,
2013-06-07 06:30:00,-999.9,-99.9,29.74,N/A,-737280,0.0,0.0,-32768,0.00,,,0.01,Wunderground v.1.12,2013-06-07 10:30:00,
2013-06-07 06:40:00,-999.9,-99.9,29.74,N/A,-737280,0.0,0.0,-32768,0.00,,,0.01,Wunderground v.1.12,2013-06-07 10:40:00,
2013-06-07 06:50:00,-999.9,-99.9,29.74,N/A,-737280,0.0,0.0,-32768,0.00,,,0.01,Wunderground v.1.12,2013-06-07 10:50:00,
2013-06-07 07:00:00,70.4,69.2,29.74,N/A,-737280,0.0,0.0,96,0.00,,,0.01,Wunderground v.1.12,2013-06-07 11:00:00,
2013-06-07 07:10:00,70.4,69.2,29.74,SE,135,0.0,1.0,96,0.00,,,0.01,Wunderground v.1.12,2013-06-07 11:10:00,
2013-06-07 07:20:00,70.4,69.2,29.74,SE,135,0.0,1.0,96,0.00,,,0.01,Wunderground v.1.12,2013-06-07 11:20:00,
2013-06-07 07:30:00,70.4,69.2,29.75,SE,135,0.0,1.0,96,0.00,,,0.01,Wunderground v.1.12,2013-06-07 11:30:00,
2013-06-07 07:40:00,70.4,69.2,29.75,N/A,-737280,0.0,0.0,96,0.00,,,0.01,Wunderground v.1.12,2013-06-07 11:40:00,
2013-06-07 07:50:00,70.4,69.2,29.75,N/A,-737280,0.0,0.0,96,0.00,,,0.01,Wunderground v.1.12,2013-06-07 11:50:00,
2013-06-07 08:00:00,70.6,69.4,29.75,N/A,-737280,0.0,0.0,96,0.00,,,0.01,Wunderground v.1.12,2013-06-07 12:00:00,
2013-06-07 08:10:00,70.8,69.6,29.75,N/A,-737280,0.0,0.0,96,0.00,,,0.02,Wunderground v.1.12,2013-06-07 12:10:00,
2013-06-07 08:20:00,70.8,69.6,29.75,N/A,-737280,0.0,0.0,96,0.00,,,0.02,Wunderground v.1.12,2013-06-07 12:20:00,
2013-06-07 08:30:00,70.9,69.7,29.75,N/A,-737280,0.0,0.0,96,0.00,,,0.02,Wunderground v.1.12,2013-06-07 12:30:00,
2013-06-07 08:40:00,70.8,69.6,29.75,SE,142,0.0,0.0,96,0.00,,,0.01,Wunderground v.1.12,2013-06-07 12:40:00,
2013-06-07 08:49:00,70.9,69.7,29.75,SE,142,0.0,0.0,96,0.00,,,0.01,Wunderground v.1.12,2013-06-07 12:49:00,
2013-06-07 09:00:00,70.9,69.7,29.75,SE,142,0.0,0.0,96,0.00,,,0.01,Wunderground v.1.12,2013-06-07 13:00:00,
2013-06-07 09:10:00,70.9,69.7,29.75,SE,142,0.0,0.0,96,0.00,,,0.01,Wunderground v.1.12,2013-06-07 13:10:00,
2013-06-07 09:19:00,71.1,69.9,29.74,SE,142,0.0,0.0,96,0.00,,,0.01,Wunderground v.1.12,2013-06-07 13:19:00,
2013-06-07 09:29:00,71.1,69.9,29.74,SE,142,0.0,0.0,96,0.00,,,0.02,Wunderground v.1.12,2013-06-07 13:29:00,
2013-06-07 09:40:00,71.3,70.1,29.74,SE,142,0.0,0.0,96,0.00,,,0.02,Wunderground v.1.12,2013-06-07 13:40:00,
2013-06-07 09:49:00,71.3,70.1,29.74,SE,142,0.0,0.0,96,0.00,,,0.02,Wunderground v.1.12,2013-06-07 13:49:00,
2013-06-07 10:00:00,71.3,70.1,29.74,SE,142,0.0,0.0,96,0.00,,,0.02,Wunderground v.1.12,2013-06-07 14:00:00,
2013-06-07 10:10:00,71.3,70.1,29.74,SE,142,0.0,0.0,96,0.00,,,0.02,Wunderground v.1.12,2013-06-07 14:10:00,
2013-06-07 10:19:00,71.3,70.1,29.74,SE,142,0.0,0.0,96,0.00,,,0.02,Wunderground v.1.12,2013-06-07 14:19:00,
2013-06-07 10:30:00,71.3,70.1,29.73,SE,142,0.0,0.0,96,0.00,,,0.02,Wunderground v.1.12,2013-06-07 14:30:00,
2013-06-07 10:39:00,71.1,69.9,29.73,SE,142,0.0,0.0,96,0.00,,,0.02,Wunderground v.1.12,2013-06-07 14:39:00,
2013-06-07 10:49:00,71.3,70.1,29.73,SE,142,0.0,0.0,96,0.00,,,0.02,Wunderground v.1.12,2013-06-07 14:49:00,
2013-06-07 10:59:00,71.1,69.9,29.72,North,5,0.0,1.0,96,0.00,,,0.02,Wunderground v.1.12,2013-06-07 14:59:00,
2013-06-07 11:10:00,70.9,69.7,29.72,North,5,0.0,0.0,96,0.00,,,0.02,Wunderground v.1.12,2013-06-07 15:10:00,
2013-06-07 11:19:00,70.8,69.6,29.72,North,5,0.0,0.0,96,0.00,,,0.02,Wunderground v.1.12,2013-06-07 15:19:00,
2013-06-07 11:30:00,70.8,69.6,29.71,NE,38,0.0,0.0,96,0.00,,,0.02,Wunderground v.1.12,2013-06-07 15:30:00,
2013-06-07 11:40:00,70.4,69.2,29.71,NNE,19,1.0,1.0,96,0.00,,,0.02,Wunderground v.1.12,2013-06-07 15:40:00,
2013-06-07 11:49:00,70.4,69.2,29.71,NNE,19,0.0,2.0,96,0.00,,,0.02,Wunderground v.1.12,2013-06-07 15:49:00,
2013-06-07 12:00:00,70.4,69.2,29.70,NNE,19,0.0,2.0,96,0.00,,,0.02,Wunderground v.1.12,2013-06-07 16:00:00,
2013-06-07 12:09:00,70.3,69.1,29.70,NNE,19,0.0,2.0,96,0.00,,,0.02,Wunderground v.1.12,2013-06-07 16:09:00,
2013-06-07 12:20:00,70.3,69.1,29.69,NNE,19,0.0,2.0,96,0.00,,,0.02,Wunderground v.1.12,2013-06-07 16:20:00,
2013-06-07 12:29:00,70.1,68.9,29.69,NNE,19,0.0,2.0,96,0.00,,,0.02,Wunderground v.1.12,2013-06-07 16:29:00,
2013-06-07 12:40:00,69.9,68.7,29.69,NNE,19,0.0,2.0,96,0.00,,,0.02,Wunderground v.1.12,2013-06-07 16:40:00,
2013-06-07 12:50:00,69.9,68.7,29.69,NNE,19,0.0,2.0,96,0.00,,,0.02,Wunderground v.1.12,2013-06-07 16:50:00,
2013-06-07 13:00:00,69.8,68.6,29.67,NNE,19,0.0,2.0,96,0.00,,,0.02,Wunderground v.1.12,2013-06-07 17:00:00,
2013-06-07 13:10:00,69.6,68.4,29.67,North,355,0.0,2.0,96,0.00,,,0.03,Wunderground v.1.12,2013-06-07 17:10:00,
2013-06-07 13:19:00,69.9,68.7,29.65,East,98,0.0,2.0,96,0.00,,,0.03,Wunderground v.1.12,2013-06-07 17:19:00,
2013-06-07 13:30:00,69.9,68.7,29.64,SE,127,0.0,2.0,96,0.00,,,0.03,Wunderground v.1.12,2013-06-07 17:30:00,
2013-06-07 13:39:00,69.9,68.7,29.64,SE,127,0.0,2.0,96,0.00,,,0.03,Wunderground v.1.12,2013-06-07 17:39:00,
2013-06-07 13:50:00,69.8,68.6,29.64,SE,127,0.0,2.0,96,0.00,,,0.03,Wunderground v.1.12,2013-06-07 17:50:00,
2013-06-07 14:10:00,70.1,68.9,29.64,SSE,150,0.0,2.0,96,0.00,,,0.03,Wunderground v.1.12,2013-06-07 18:10:00,
2013-06-07 14:40:00,69.8,68.6,29.62,ENE,60,1.0,6.0,96,0.00,,,0.03,Wunderground v.1.12,2013-06-07 18:40:00,
2013-06-07 14:49:00,69.8,68.6,29.60,ENE,73,0.0,2.0,96,0.00,,,0.03,Wunderground v.1.12,2013-06-07 18:49:00,
2013-06-07 15:00:00,69.6,68.4,29.60,ENE,61,1.0,2.0,96,0.00,,,0.03,Wunderground v.1.12,2013-06-07 19:00:00,
2013-06-07 15:10:00,69.6,68.4,29.60,South,177,1.0,1.0,96,0.00,,,0.03,Wunderground v.1.12,2013-06-07 19:10:00,
2013-06-07 15:19:00,69.6,68.4,29.60,East,80,0.0,2.0,96,0.00,,,0.03,Wunderground v.1.12,2013-06-07 19:19:00,
2013-06-07 15:30:00,69.4,68.2,29.59,ESE,123,1.0,2.0,96,0.00,,,0.03,Wunderground v.1.12,2013-06-07 19:30:00,
2013-06-07 15:39:00,69.4,68.2,29.59,SE,134,0.0,2.0,96,0.00,,,0.03,Wunderground v.1.12,2013-06-07 19:39:00,
2013-06-07 15:50:00,69.4,68.2,29.59,SE,134,0.0,2.0,96,0.00,,,0.03,Wunderground v.1.12,2013-06-07 19:50:00,
2013-06-07 15:59:00,69.3,68.1,29.57,East,83,0.0,2.0,96,0.00,,,0.03,Wunderground v.1.12,2013-06-07 19:59:00,
2013-06-07 16:10:00,69.3,68.1,29.57,East,92,0.0,0.0,96,0.00,,,0.03,Wunderground v.1.12,2013-06-07 20:10:00,
2013-06-07 16:20:00,69.3,68.1,29.56,East,100,1.0,1.0,96,0.00,,,0.03,Wunderground v.1.12,2013-06-07 20:20:00,
2013-06-07 16:29:00,69.4,68.2,29.55,ENE,57,0.0,0.0,96,0.00,,,0.04,Wunderground v.1.12,2013-06-07 20:29:00,
2013-06-07 16:40:00,69.4,68.2,29.55,NE,55,1.0,1.0,96,0.00,,,0.04,Wunderground v.1.12,2013-06-07 20:40:00,
2013-06-07 16:50:00,69.6,68.4,29.56,East,101,0.0,2.0,96,0.00,,,0.04,Wunderground v.1.12,2013-06-07 20:50:00,
2013-06-07 17:09:00,69.6,68.4,29.57,East,91,1.0,1.0,96,0.00,,,0.04,Wunderground v.1.12,2013-06-07 21:09:00,
2013-06-07 17:20:00,69.4,68.2,29.55,SSE,167,1.0,1.0,96,0.00,,,0.04,Wunderground v.1.12,2013-06-07 21:20:00,
2013-06-07 17:30:00,69.4,68.2,29.52,ENE,63,1.0,1.0,96,0.00,,,0.04,Wunderground v.1.12,2013-06-07 21:30:00,
2013-06-07 17:50:00,69.8,68.6,29.51,ESE,102,1.0,4.0,96,0.00,,,0.04,Wunderground v.1.12,2013-06-07 21:50:00,
2013-06-07 17:59:00,69.8,68.6,29.53,NW,316,1.0,1.0,96,0.00,,,0.04,Wunderground v.1.12,2013-06-07 21:59:00,
2013-06-07 18:20:00,69.8,68.6,29.51,ESE,110,1.0,1.0,96,0.00,,,0.04,Wunderground v.1.12,2013-06-07 22:20:00,
2013-06-07 18:29:00,69.8,68.6,29.52,NE,54,1.0,1.0,96,0.00,,,0.04,Wunderground v.1.12,2013-06-07 22:29:00,
2013-06-07 18:40:00,69.8,68.6,29.52,ENE,61,1.0,1.0,96,0.00,,,0.04,Wunderground v.1.12,2013-06-07 22:40:00,
2013-06-07 18:50:00,69.8,68.6,29.52,NE,52,0.0,2.0,96,0.00,,,0.04,Wunderground v.1.12,2013-06-07 22:50:00,
2013-06-07 18:59:00,69.8,68.6,29.51,ENE,57,1.0,1.0,96,0.00,,,0.04,Wunderground v.1.12,2013-06-07 22:59:00,
2013-06-07 19:10:00,69.8,68.6,29.51,NE,42,0.0,3.0,96,0.00,,,0.04,Wunderground v.1.12,2013-06-07 23:10:00,
2013-06-07 19:19:00,69.8,68.6,29.52,East,88,1.0,1.0,96,0.00,,,0.04,Wunderground v.1.12,2013-06-07 23:19:00,
2013-06-07 19:40:00,69.6,68.4,29.52,East,81,1.0,1.0,96,0.00,,,0.05,Wunderground v.1.12,2013-06-07 23:40:00,
2013-06-07 19:49:00,69.4,68.2,29.51,East,85,1.0,2.0,96,0.00,,,0.05,Wunderground v.1.12,2013-06-07 23:49:00,
2013-06-07 20:00:00,69.4,68.2,29.52,ENE,64,0.0,2.0,96,0.00,,,0.05,Wunderground v.1.12,2013-06-08 00:00:00,
2013-06-07 20:29:00,69.1,67.9,29.53,WSW,254,0.0,4.0,96,0.00,,,0.05,Wunderground v.1.12,2013-06-08 00:29:00,
2013-06-07 20:40:00,68.9,67.7,29.53,ESE,107,0.0,4.0,96,0.00,,,0.05,Wunderground v.1.12,2013-06-08 00:40:00,
2013-06-07 20:49:00,68.8,67.6,29.53,ESE,107,0.0,4.0,96,0.00,,,0.05,Wunderground v.1.12,2013-06-08 00:49:00,
2013-06-07 21:00:00,-999.9,-99.9,29.54,North,32767,-999.0,4.0,255,-99.99,,,0.05,Wunderground v.1.12,2013-06-08 01:00:00,
2013-06-07 21:09:00,-999.9,-99.9,29.54,North,32767,-999.0,4.0,255,-99.99,,,0.05,Wunderground v.1.12,2013-06-08 01:09:00,
2013-06-07 21:20:00,-999.9,-99.9,29.54,North,32767,-999.0,4.0,255,-99.99,,,0.05,Wunderground v.1.12,2013-06-08 01:20:00,
2013-06-07 21:29:00,-999.9,-99.9,29.54,North,32767,-999.0,4.0,255,-99.99,,,0.05,Wunderground v.1.12,2013-06-08 01:29:00,
2013-06-07 21:40:00,-999.9,-99.9,29.54,North,32767,-999.0,4.0,255,-99.99,,,0.05,Wunderground v.1.12,2013-06-08 01:40:00,
2013-06-07 21:49:00,-999.9,-99.9,29.54,North,32767,-999.0,4.0,255,-99.99,,,0.05,Wunderground v.1.12,2013-06-08 01:49:00,
2013-06-07 22:00:00,-999.9,-99.9,29.56,North,32767,-999.0,4.0,255,-99.99,,,0.05,Wunderground v.1.12,2013-06-08 02:00:00,
2013-06-07 22:19:00,-999.9,-99.9,29.56,North,32767,-999.0,4.0,255,-99.99,,,0.05,Wunderground v.1.12,2013-06-08 02:19:00,
2013-06-07 22:39:00,-999.9,-99.9,29.57,North,32767,-999.0,4.0,255,-99.99,,,0.05,Wunderground v.1.12,2013-06-08 02:39:00,
2013-06-07 22:59:00,-999.9,-99.9,29.59,North,32767,-999.0,4.0,255,-99.99,,,0.05,Wunderground v.1.12,2013-06-08 02:59:00,
2013-06-07 23:09:00,-999.9,-99.9,29.59,North,32767,-999.0,4.0,255,-99.99,,,0.05,Wunderground v.1.12,2013-06-08 03:09:00,
2013-06-07 23:20:00,-999.9,-99.9,29.60,North,32767,-999.0,4.0,255,-99.99,,,0.05,Wunderground v.1.12,2013-06-08 03:20:00,
2013-06-07 23:30:00,-999.9,-99.9,29.60,North,32767,-999.0,4.0,255,-99.99,,,0.05,Wunderground v.1.12,2013-06-08 03:30:00,
2013-06-07 23:59:00,-999.9,-99.9,29.62,North,32767,-999.0,4.0,255,-99.99,,,0.05,Wunderground v.1.12,2013-06-08 03:59:00,